sensor_id;sensor_type;location;lat;lon;timestamp;pressure;altitude;pressure_sealevel;temperature;humidity
12759;BME280;20944;47.048;15.390;2023-11-18T00:01:02;97748.31;;;6.46;49.97
12759;BME280;20944;47.048;15.390;2023-11-18T00:03:31;97753.59;;;6.40;51.40
12759;BME280;20944;47.048;15.390;2023-11-18T00:06:00;97739.13;;;6.10;52.53
12759;BME280;20944;47.048;15.390;2023-11-18T00:08:28;97734.69;;;6.20;49.00
12759;BME280;20944;47.048;15.390;2023-11-18T00:10:57;97758.00;;;6.32;50.46
12759;BME280;20944;47.048;15.390;2023-11-18T00:13:26;97765.03;;;6.22;52.76
12759;BME280;20944;47.048;15.390;2023-11-18T00:15:54;97737.50;;;5.94;54.14
12759;BME280;20944;47.048;15.390;2023-11-18T00:18:24;97770.47;;;5.92;53.72
12759;BME280;20944;47.048;15.390;2023-11-18T00:20:54;97772.25;;;5.79;53.19
12759;BME280;20944;47.048;15.390;2023-11-18T00:23:24;97719.69;;;5.31;54.02
12759;BME280;20944;47.048;15.390;2023-11-18T00:25:53;97781.78;;;5.77;51.92
12759;BME280;20944;47.048;15.390;2023-11-18T00:28:21;97781.81;;;5.74;52.91
12759;BME280;20944;47.048;15.390;2023-11-18T00:30:50;97787.06;;;5.66;54.03
12759;BME280;20944;47.048;15.390;2023-11-18T00:33:18;97792.31;;;5.56;54.30
12759;BME280;20944;47.048;15.390;2023-11-18T00:35:46;97781.06;;;5.60;54.40
12759;BME280;20944;47.048;15.390;2023-11-18T00:38:16;97780.16;;;5.58;55.05
12759;BME280;20944;47.048;15.390;2023-11-18T00:40:44;97592.94;;;4.33;55.70
12759;BME280;20944;47.048;15.390;2023-11-18T00:43:13;97779.44;;;5.31;56.05
12759;BME280;20944;47.048;15.390;2023-11-18T00:45:48;97802.75;;;5.47;54.56
12759;BME280;20944;47.048;15.390;2023-11-18T00:48:34;97794.13;;;5.38;54.55
12759;BME280;20944;47.048;15.390;2023-11-18T00:51:03;97795.84;;;5.39;54.53
12759;BME280;20944;47.048;15.390;2023-11-18T00:53:32;97795.03;;;5.34;56.96
12759;BME280;20944;47.048;15.390;2023-11-18T00:56:01;97795.91;;;5.32;57.65
12759;BME280;20944;47.048;15.390;2023-11-18T00:58:29;97690.56;;;4.67;58.28
12759;BME280;20944;47.048;15.390;2023-11-18T01:00:58;97788.13;;;5.26;57.76
12759;BME280;20944;47.048;15.390;2023-11-18T01:03:27;97778.63;;;5.23;58.31
12759;BME280;20944;47.048;15.390;2023-11-18T01:05:56;97725.16;;;4.73;56.69
12759;BME280;20944;47.048;15.390;2023-11-18T01:08:24;97779.56;;;5.05;58.34
12759;BME280;20944;47.048;15.390;2023-11-18T01:10:54;97789.06;;;5.06;59.44
12759;BME280;20944;47.048;15.390;2023-11-18T01:13:22;97789.06;;;5.02;60.19
12759;BME280;20944;47.048;15.390;2023-11-18T01:15:53;97775.25;;;5.03;59.53
12759;BME280;20944;47.048;15.390;2023-11-18T01:18:22;97781.34;;;4.86;60.57
12759;BME280;20944;47.048;15.390;2023-11-18T01:20:50;97788.28;;;4.86;59.42
12759;BME280;20944;47.048;15.390;2023-11-18T01:23:19;97792.59;;;4.85;60.61
12759;BME280;20944;47.048;15.390;2023-11-18T01:25:47;97802.16;;;4.79;62.04
12759;BME280;20944;47.048;15.390;2023-11-18T01:28:19;97784.88;;;4.61;61.21
12759;BME280;20944;47.048;15.390;2023-11-18T01:30:47;97803.84;;;4.77;61.74
12759;BME280;20944;47.048;15.390;2023-11-18T01:33:16;97800.41;;;4.84;61.09
12759;BME280;20944;47.048;15.390;2023-11-18T01:35:44;97804.72;;;4.82;60.49
12759;BME280;20944;47.048;15.390;2023-11-18T01:38:12;97792.63;;;4.70;61.13
12759;BME280;20944;47.048;15.390;2023-11-18T01:40:41;97806.44;;;4.87;61.36
12759;BME280;20944;47.048;15.390;2023-11-18T01:43:09;97815.06;;;4.90;61.42
12759;BME280;20944;47.048;15.390;2023-11-18T01:45:42;97790.03;;;4.73;62.84
12759;BME280;20944;47.048;15.390;2023-11-18T01:48:10;97811.66;;;4.81;63.60
12759;BME280;20944;47.048;15.390;2023-11-18T01:50:41;97808.19;;;4.81;63.64
12759;BME280;20944;47.048;15.390;2023-11-18T01:53:11;97806.44;;;4.81;64.18
12759;BME280;20944;47.048;15.390;2023-11-18T01:55:41;97828.09;;;4.80;65.28
12759;BME280;20944;47.048;15.390;2023-11-18T01:58:10;97833.28;;;4.82;66.00
12759;BME280;20944;47.048;15.390;2023-11-18T02:00:42;97816.84;;;4.69;66.06
12759;BME280;20944;47.048;15.390;2023-11-18T02:03:13;97784.91;;;4.43;66.32
12759;BME280;20944;47.048;15.390;2023-11-18T02:05:41;97834.16;;;4.63;67.53
12759;BME280;20944;47.048;15.390;2023-11-18T02:08:11;97819.44;;;4.58;71.08
12759;BME280;20944;47.048;15.390;2023-11-18T02:10:46;97838.50;;;4.68;70.10
12759;BME280;20944;47.048;15.390;2023-11-18T02:13:22;97842.81;;;4.68;70.91
12759;BME280;20944;47.048;15.390;2023-11-18T02:15:56;97849.72;;;4.70;71.32
12759;BME280;20944;47.048;15.390;2023-11-18T02:18:25;97782.28;;;4.33;68.20
12759;BME280;20944;47.048;15.390;2023-11-18T02:20:55;97847.13;;;4.75;67.86
12759;BME280;20944;47.048;15.390;2023-11-18T02:23:24;97849.72;;;4.76;67.79
12759;BME280;20944;47.048;15.390;2023-11-18T02:25:55;97846.25;;;4.83;66.35
12759;BME280;20944;47.048;15.390;2023-11-18T02:28:24;97838.47;;;4.77;67.16
12759;BME280;20944;47.048;15.390;2023-11-18T02:30:56;97860.09;;;4.93;67.66
12759;BME280;20944;47.048;15.390;2023-11-18T02:33:34;97860.97;;;4.87;64.41
12759;BME280;20944;47.048;15.390;2023-11-18T02:36:12;97857.47;;;4.96;63.34
12759;BME280;20944;47.048;15.390;2023-11-18T02:38:46;97855.75;;;5.04;64.95
12759;BME280;20944;47.048;15.390;2023-11-18T02:41:18;97849.69;;;4.98;63.85
12759;BME280;20944;47.048;15.390;2023-11-18T02:43:49;97859.19;;;5.16;71.06
12759;BME280;20944;47.048;15.390;2023-11-18T02:46:18;97859.16;;;5.14;72.07
12759;BME280;20944;47.048;15.390;2023-11-18T02:48:48;97859.16;;;5.19;70.32
12759;BME280;20944;47.048;15.390;2023-11-18T02:51:20;97854.81;;;5.19;72.34
12759;BME280;20944;47.048;15.390;2023-11-18T02:53:49;97859.16;;;5.20;71.71
12759;BME280;20944;47.048;15.390;2023-11-18T02:56:19;97863.50;;;5.12;70.91
12759;BME280;20944;47.048;15.390;2023-11-18T02:58:47;97862.66;;;5.04;70.15
12759;BME280;20944;47.048;15.390;2023-11-18T03:01:16;97570.72;;;3.29;71.64
12759;BME280;20944;47.048;15.390;2023-11-18T03:03:46;97873.91;;;5.12;72.88
12759;BME280;20944;47.048;15.390;2023-11-18T03:06:14;97870.44;;;5.10;72.52
12759;BME280;20944;47.048;15.390;2023-11-18T03:08:43;97879.94;;;5.08;72.06
12759;BME280;20944;47.048;15.390;2023-11-18T03:11:11;97636.31;;;3.66;72.57
12759;BME280;20944;47.048;15.390;2023-11-18T03:13:41;97886.03;;;5.10;74.44
12759;BME280;20944;47.048;15.390;2023-11-18T03:16:09;97874.78;;;5.03;73.86
12759;BME280;20944;47.048;15.390;2023-11-18T03:18:39;97828.97;;;4.73;74.33
12759;BME280;20944;47.048;15.390;2023-11-18T03:21:11;97865.31;;;4.67;73.91
12759;BME280;20944;47.048;15.390;2023-11-18T03:23:40;97894.72;;;4.97;74.18
12759;BME280;20944;47.048;15.390;2023-11-18T03:26:09;97891.25;;;4.92;74.45
12759;BME280;20944;47.048;15.390;2023-11-18T03:28:38;97886.91;;;4.77;73.06
12759;BME280;20944;47.048;15.390;2023-11-18T03:31:08;97899.03;;;4.75;73.72
12759;BME280;20944;47.048;15.390;2023-11-18T03:33:39;97892.97;;;4.80;73.00
12759;BME280;20944;47.048;15.390;2023-11-18T03:36:08;97881.75;;;4.80;72.33
12759;BME280;20944;47.048;15.390;2023-11-18T03:38:39;97908.53;;;4.94;75.84
12759;BME280;20944;47.048;15.390;2023-11-18T03:41:07;97674.28;;;3.45;78.18
12759;BME280;20944;47.048;15.390;2023-11-18T03:43:37;97915.47;;;4.80;79.53
12759;BME280;20944;47.048;15.390;2023-11-18T03:46:05;97918.94;;;4.74;82.15
12759;BME280;20944;47.048;15.390;2023-11-18T03:48:35;97926.72;;;4.64;82.19
12759;BME280;20944;47.048;15.390;2023-11-18T03:51:04;97908.56;;;4.62;81.84
12759;BME280;20944;47.048;15.390;2023-11-18T03:53:33;97914.63;;;4.69;78.98
12759;BME280;20944;47.048;15.390;2023-11-18T03:56:02;97925.84;;;4.71;79.13
12759;BME280;20944;47.048;15.390;2023-11-18T03:58:30;97910.28;;;4.62;79.34
12759;BME280;20944;47.048;15.390;2023-11-18T04:00:59;97914.63;;;4.55;80.32
12759;BME280;20944;47.048;15.390;2023-11-18T04:03:28;97918.06;;;4.48;78.19
12759;BME280;20944;47.048;15.390;2023-11-18T04:05:58;97914.59;;;4.38;80.55
12759;BME280;20944;47.048;15.390;2023-11-18T04:08:26;97915.47;;;4.40;79.85
12759;BME280;20944;47.048;15.390;2023-11-18T04:10:55;97915.50;;;4.46;79.62
12759;BME280;20944;47.048;15.390;2023-11-18T04:13:23;97900.75;;;4.44;80.11
12759;BME280;20944;47.048;15.390;2023-11-18T04:15:51;97905.06;;;4.39;82.67
12759;BME280;20944;47.048;15.390;2023-11-18T04:18:20;97902.50;;;4.40;82.08
12759;BME280;20944;47.048;15.390;2023-11-18T04:20:48;97907.66;;;4.32;83.55
12759;BME280;20944;47.048;15.390;2023-11-18T04:23:19;97916.31;;;4.24;83.85
12759;BME280;20944;47.048;15.390;2023-11-18T04:25:47;97905.94;;;4.22;84.94
12759;BME280;20944;47.048;15.390;2023-11-18T04:28:15;97905.06;;;4.19;84.73
12759;BME280;20944;47.048;15.390;2023-11-18T04:30:43;97904.22;;;4.35;84.73
12759;BME280;20944;47.048;15.390;2023-11-18T04:33:12;97920.66;;;4.36;84.44
12759;BME280;20944;47.048;15.390;2023-11-18T04:35:41;97873.88;;;3.94;85.85
12759;BME280;20944;47.048;15.390;2023-11-18T04:38:09;97926.63;;;4.15;87.71
12759;BME280;20944;47.048;15.390;2023-11-18T04:40:39;97931.81;;;4.15;87.09
12759;BME280;20944;47.048;15.390;2023-11-18T04:43:08;97942.19;;;4.04;86.72
12759;BME280;20944;47.048;15.390;2023-11-18T04:45:37;97932.66;;;4.01;86.14
12759;BME280;20944;47.048;15.390;2023-11-18T04:48:06;97891.13;;;3.72;86.21
12759;BME280;20944;47.048;15.390;2023-11-18T04:50:34;97897.16;;;3.74;85.18
12759;BME280;20944;47.048;15.390;2023-11-18T04:53:03;97912.75;;;3.87;85.01
12759;BME280;20944;47.048;15.390;2023-11-18T04:55:35;97931.75;;;3.86;86.04
12759;BME280;20944;47.048;15.390;2023-11-18T04:58:04;97930.88;;;3.77;87.34
12759;BME280;20944;47.048;15.390;2023-11-18T05:00:33;97936.06;;;3.87;87.42
12759;BME280;20944;47.048;15.390;2023-11-18T05:03:01;97927.41;;;3.83;86.39
12759;BME280;20944;47.048;15.390;2023-11-18T05:05:30;97946.47;;;3.90;87.24
12759;BME280;20944;47.048;15.390;2023-11-18T05:07:59;97946.44;;;3.85;88.55
12759;BME280;20944;47.048;15.390;2023-11-18T05:10:27;97955.06;;;3.81;88.35
12759;BME280;20944;47.048;15.390;2023-11-18T05:12:55;97938.63;;;3.71;88.88
12759;BME280;20944;47.048;15.390;2023-11-18T05:15:25;97949.03;;;3.87;86.25
12759;BME280;20944;47.048;15.390;2023-11-18T05:17:54;97928.34;;;3.99;86.76
12759;BME280;20944;47.048;15.390;2023-11-18T05:20:22;97884.06;;;3.36;88.53
12759;BME280;20944;47.048;15.390;2023-11-18T05:22:51;97965.34;;;3.60;90.04
12759;BME280;20944;47.048;15.390;2023-11-18T05:25:19;97958.38;;;3.51;89.73
12759;BME280;20944;47.048;15.390;2023-11-18T05:27:48;97962.78;;;3.69;89.17
12759;BME280;20944;47.048;15.390;2023-11-18T05:30:16;97952.44;;;3.76;88.29
12759;BME280;20944;47.048;15.390;2023-11-18T05:32:46;97961.06;;;3.75;87.72
12759;BME280;20944;47.048;15.390;2023-11-18T05:35:14;97951.59;;;3.79;86.68
12759;BME280;20944;47.048;15.390;2023-11-18T05:37:43;97953.34;;;3.78;85.91
12759;BME280;20944;47.048;15.390;2023-11-18T05:40:11;97943.81;;;3.76;85.92
12759;BME280;20944;47.048;15.390;2023-11-18T05:42:42;97929.03;;;3.54;87.84
12759;BME280;20944;47.048;15.390;2023-11-18T05:45:13;97966.19;;;3.60;89.93
12759;BME280;20944;47.048;15.390;2023-11-18T05:47:56;97973.06;;;3.57;91.48
12759;BME280;20944;47.048;15.390;2023-11-18T05:50:24;97970.50;;;3.61;91.74
12759;BME280;20944;47.048;15.390;2023-11-18T05:52:54;97967.97;;;3.66;90.34
12759;BME280;20944;47.048;15.390;2023-11-18T05:55:23;97978.31;;;3.70;88.73
12759;BME280;20944;47.048;15.390;2023-11-18T05:57:51;97941.94;;;3.49;89.50
12759;BME280;20944;47.048;15.390;2023-11-18T06:00:19;97986.22;;;3.92;89.95
12759;BME280;20944;47.048;15.390;2023-11-18T06:03:03;97995.69;;;3.87;93.51
12759;BME280;20944;47.048;15.390;2023-11-18T06:05:31;97992.22;;;3.85;93.91
12759;BME280;20944;47.048;15.390;2023-11-18T06:08:02;98005.22;;;3.94;93.37
12759;BME280;20944;47.048;15.390;2023-11-18T06:10:31;98000.03;;;3.92;91.94
12759;BME280;20944;47.048;15.390;2023-11-18T06:13:00;97990.53;;;3.91;93.26
12759;BME280;20944;47.048;15.390;2023-11-18T06:15:28;98003.50;;;3.96;93.89
12759;BME280;20944;47.048;15.390;2023-11-18T06:17:56;97994.81;;;3.89;92.26
12759;BME280;20944;47.048;15.390;2023-11-18T06:20:26;98006.09;;;3.93;91.83
12759;BME280;20944;47.048;15.390;2023-11-18T06:22:55;97998.34;;;4.02;90.95
12759;BME280;20944;47.048;15.390;2023-11-18T06:25:25;97901.31;;;3.37;92.06
12759;BME280;20944;47.048;15.390;2023-11-18T06:27:53;98031.94;;;3.77;93.28
12759;BME280;20944;47.048;15.390;2023-11-18T06:30:21;98026.69;;;3.68;92.89
12759;BME280;20944;47.048;15.390;2023-11-18T06:32:50;98022.41;;;3.76;91.47
12759;BME280;20944;47.048;15.390;2023-11-18T06:35:18;98025.06;;;3.86;90.20
12759;BME280;20944;47.048;15.390;2023-11-18T06:37:51;98019.00;;;3.87;90.18
12759;BME280;20944;47.048;15.390;2023-11-18T06:40:19;98032.91;;;3.99;90.83
12759;BME280;20944;47.048;15.390;2023-11-18T06:42:49;98015.59;;;3.91;90.32
12759;BME280;20944;47.048;15.390;2023-11-18T06:45:17;98026.03;;;4.09;90.11
12759;BME280;20944;47.048;15.390;2023-11-18T06:47:45;98034.66;;;4.05;90.38
12759;BME280;20944;47.048;15.390;2023-11-18T06:50:16;98040.69;;;3.99;91.44
12759;BME280;20944;47.048;15.390;2023-11-18T06:52:44;98051.06;;;4.05;91.90
12759;BME280;20944;47.048;15.390;2023-11-18T06:55:16;98046.84;;;4.26;88.98
12759;BME280;20944;47.048;15.390;2023-11-18T06:57:44;98032.16;;;4.22;88.81
12759;BME280;20944;47.048;15.390;2023-11-18T07:00:14;98040.84;;;4.44;91.13
12759;BME280;20944;47.048;15.390;2023-11-18T07:02:42;98048.72;;;4.73;88.16
12759;BME280;20944;47.048;15.390;2023-11-18T07:05:10;98063.47;;;4.87;85.56
12759;BME280;20944;47.048;15.390;2023-11-18T07:07:41;98069.53;;;5.05;84.86
12759;BME280;20944;47.048;15.390;2023-11-18T07:10:13;98070.41;;;5.33;83.17
12759;BME280;20944;47.048;15.390;2023-11-18T07:12:43;98065.22;;;5.50;80.73
12759;BME280;20944;47.048;15.390;2023-11-18T07:15:12;98050.50;;;5.44;79.36
12759;BME280;20944;47.048;15.390;2023-11-18T07:17:41;98046.19;;;5.35;78.57
12759;BME280;20944;47.048;15.390;2023-11-18T07:20:11;98067.81;;;5.53;77.06
12759;BME280;20944;47.048;15.390;2023-11-18T07:22:40;98078.22;;;5.60;75.87
12759;BME280;20944;47.048;15.390;2023-11-18T07:25:09;98098.13;;;5.57;75.88
12759;BME280;20944;47.048;15.390;2023-11-18T07:27:39;98086.88;;;5.58;74.90
12759;BME280;20944;47.048;15.390;2023-11-18T07:30:10;98082.53;;;5.51;76.23
12759;BME280;20944;47.048;15.390;2023-11-18T07:32:39;98087.75;;;5.51;76.26
12759;BME280;20944;47.048;15.390;2023-11-18T07:35:08;98092.09;;;5.49;76.32
12759;BME280;20944;47.048;15.390;2023-11-18T07:37:36;98085.16;;;5.55;76.92
12759;BME280;20944;47.048;15.390;2023-11-18T07:40:06;98083.41;;;5.63;76.86
12759;BME280;20944;47.048;15.390;2023-11-18T07:42:38;98084.28;;;5.47;80.10
12759;BME280;20944;47.048;15.390;2023-11-18T07:45:09;98086.88;;;5.44;80.09
12759;BME280;20944;47.048;15.390;2023-11-18T07:47:45;98072.16;;;5.22;81.63
12759;BME280;20944;47.048;15.390;2023-11-18T07:50:16;98082.53;;;5.34;83.37
12759;BME280;20944;47.048;15.390;2023-11-18T07:52:44;98096.41;;;5.24;83.64
12759;BME280;20944;47.048;15.390;2023-11-18T07:55:13;98047.03;;;5.05;81.65
12759;BME280;20944;47.048;15.390;2023-11-18T07:57:41;98088.59;;;5.19;82.75
12759;BME280;20944;47.048;15.390;2023-11-18T08:00:13;98081.66;;;5.09;83.06
12759;BME280;20944;47.048;15.390;2023-11-18T08:02:42;97988.16;;;4.66;80.69
12759;BME280;20944;47.048;15.390;2023-11-18T08:05:12;98067.84;;;5.24;79.54
12759;BME280;20944;47.048;15.390;2023-11-18T08:07:42;98059.16;;;5.34;80.13
12759;BME280;20944;47.048;15.390;2023-11-18T08:10:13;98072.13;;;5.52;77.65
12759;BME280;20944;47.048;15.390;2023-11-18T08:12:46;98054.81;;;5.39;77.42
12759;BME280;20944;47.048;15.390;2023-11-18T08:15:16;98085.16;;;5.66;76.38
12759;BME280;20944;47.048;15.390;2023-11-18T08:17:45;98055.69;;;5.67;73.53
12759;BME280;20944;47.048;15.390;2023-11-18T08:20:14;98032.28;;;5.68;72.53
12759;BME280;20944;47.048;15.390;2023-11-18T08:22:43;98076.47;;;5.93;71.57
12759;BME280;20944;47.048;15.390;2023-11-18T08:25:13;98079.91;;;5.89;71.61
12759;BME280;20944;47.048;15.390;2023-11-18T08:27:42;98015.81;;;5.53;70.26
12759;BME280;20944;47.048;15.390;2023-11-18T08:30:12;98011.53;;;5.47;69.95
12759;BME280;20944;47.048;15.390;2023-11-18T08:32:43;98012.38;;;5.57;68.58
12759;BME280;20944;47.048;15.390;2023-11-18T08:35:12;98042.66;;;5.79;68.56
12759;BME280;20944;47.048;15.390;2023-11-18T08:37:42;98052.19;;;5.94;68.46
12759;BME280;20944;47.048;15.390;2023-11-18T08:40:11;98050.44;;;6.01;66.97
12759;BME280;20944;47.048;15.390;2023-11-18T08:42:43;98067.72;;;6.14;66.21
12759;BME280;20944;47.048;15.390;2023-11-18T08:45:15;98057.31;;;6.23;65.98
12759;BME280;20944;47.048;15.390;2023-11-18T08:47:47;98073.72;;;6.42;66.45
12759;BME280;20944;47.048;15.390;2023-11-18T08:50:16;98078.84;;;6.57;66.24
12759;BME280;20944;47.048;15.390;2023-11-18T08:52:45;98048.53;;;6.41;65.93
12759;BME280;20944;47.048;15.390;2023-11-18T08:55:15;98022.63;;;6.22;66.79
12759;BME280;20944;47.048;15.390;2023-11-18T08:57:49;98085.69;;;6.72;65.64
12759;BME280;20944;47.048;15.390;2023-11-18T09:00:26;98096.94;;;6.79;65.26
12759;BME280;20944;47.048;15.390;2023-11-18T09:03:15;98093.44;;;6.84;64.94
12759;BME280;20944;47.048;15.390;2023-11-18T09:05:53;98087.41;;;6.78;64.99
12759;BME280;20944;47.048;15.390;2023-11-18T09:08:32;98037.31;;;6.33;65.80
12759;BME280;20944;47.048;15.390;2023-11-18T09:11:03;98097.94;;;6.61;66.50
12759;BME280;20944;47.048;15.390;2023-11-18T09:13:34;98090.94;;;6.66;67.33
12759;BME280;20944;47.048;15.390;2023-11-18T09:16:04;98089.16;;;6.80;67.33
12759;BME280;20944;47.048;15.390;2023-11-18T09:18:37;98090.75;;;7.01;67.29
12759;BME280;20944;47.048;15.390;2023-11-18T09:21:10;98091.53;;;7.15;66.14
12759;BME280;20944;47.048;15.390;2023-11-18T09:23:43;98032.59;;;6.96;65.60
12759;BME280;20944;47.048;15.390;2023-11-18T09:26:12;98081.72;;;7.48;65.08
12759;BME280;20944;47.048;15.390;2023-11-18T09:28:41;98080.75;;;7.61;64.28
12759;BME280;20944;47.048;15.390;2023-11-18T09:31:11;98082.38;;;7.73;65.38
12759;BME280;20944;47.048;15.390;2023-11-18T09:33:41;98093.56;;;7.87;65.21
12759;BME280;20944;47.048;15.390;2023-11-18T09:36:14;98038.06;;;7.71;66.78
12759;BME280;20944;47.048;15.390;2023-11-18T09:38:45;98097.53;;;8.22;65.18
12759;BME280;20944;47.048;15.390;2023-11-18T09:41:15;98075.97;;;8.07;65.49
12759;BME280;20944;47.048;15.390;2023-11-18T09:43:44;98103.50;;;8.34;65.95
12759;BME280;20944;47.048;15.390;2023-11-18T09:46:14;98104.25;;;8.47;63.04
12759;BME280;20944;47.048;15.390;2023-11-18T09:48:46;98103.41;;;8.45;63.57
12759;BME280;20944;47.048;15.390;2023-11-18T09:51:20;98108.56;;;8.51;64.17
12759;BME280;20944;47.048;15.390;2023-11-18T09:53:50;98100.63;;;8.59;61.54
12759;BME280;20944;47.048;15.390;2023-11-18T09:56:25;98114.63;;;8.55;62.19
12759;BME280;20944;47.048;15.390;2023-11-18T09:59:11;98106.00;;;8.47;60.43
12759;BME280;20944;47.048;15.390;2023-11-18T10:01:43;98081.66;;;8.45;60.46
12759;BME280;20944;47.048;15.390;2023-11-18T10:04:15;98111.84;;;8.67;60.94
12759;BME280;20944;47.048;15.390;2023-11-18T10:06:46;98104.81;;;8.72;61.89
12759;BME280;20944;47.048;15.390;2023-11-18T10:09:15;98107.25;;;8.86;63.35
12759;BME280;20944;47.048;15.390;2023-11-18T10:11:47;98107.13;;;8.95;63.39
12759;BME280;20944;47.048;15.390;2023-11-18T10:14:16;98110.53;;;9.02;62.19
12759;BME280;20944;47.048;15.390;2023-11-18T10:16:45;98104.44;;;9.01;61.21
12759;BME280;20944;47.048;15.390;2023-11-18T10:19:16;98112.06;;;9.16;59.87
12759;BME280;20944;47.048;15.390;2023-11-18T10:21:45;98108.78;;;9.02;59.62
12759;BME280;20944;47.048;15.390;2023-11-18T10:24:16;98105.28;;;9.03;60.34
12759;BME280;20944;47.048;15.390;2023-11-18T10:26:54;98057.53;;;8.90;60.69
12759;BME280;20944;47.048;15.390;2023-11-18T10:29:24;98084.88;;;9.28;60.16
12759;BME280;20944;47.048;15.390;2023-11-18T10:32:05;98086.31;;;9.49;57.30
12759;BME280;20944;47.048;15.390;2023-11-18T10:34:38;98088.47;;;9.75;56.94
12759;BME280;20944;47.048;15.390;2023-11-18T10:37:06;98062.22;;;9.81;55.39
12759;BME280;20944;47.048;15.390;2023-11-18T10:39:37;98072.94;;;10.14;56.96
12759;BME280;20944;47.048;15.390;2023-11-18T10:42:06;98073.59;;;10.26;57.56
12759;BME280;20944;47.048;15.390;2023-11-18T10:44:34;98075.09;;;10.40;56.96
12759;BME280;20944;47.048;15.390;2023-11-18T10:47:03;98073.03;;;10.54;58.30
12759;BME280;20944;47.048;15.390;2023-11-18T10:49:31;98017.34;;;10.46;54.94
12759;BME280;20944;47.048;15.390;2023-11-18T10:52:06;98051.38;;;10.88;52.54
12759;BME280;20944;47.048;15.390;2023-11-18T10:54:35;98045.09;;;10.93;52.06
12759;BME280;20944;47.048;15.390;2023-11-18T10:57:05;97997.47;;;10.76;52.17
12759;BME280;20944;47.048;15.390;2023-11-18T10:59:35;98048.16;;;11.12;50.10
12759;BME280;20944;47.048;15.390;2023-11-18T11:02:18;98022.22;;;11.00;48.52
12759;BME280;20944;47.048;15.390;2023-11-18T11:04:48;98049.06;;;11.13;49.21
12759;BME280;20944;47.048;15.390;2023-11-18T11:07:19;98057.56;;;11.22;50.47
12759;BME280;20944;47.048;15.390;2023-11-18T11:09:50;98053.91;;;11.29;47.76
12759;BME280;20944;47.048;15.390;2023-11-18T11:12:25;98050.91;;;11.45;49.22
12759;BME280;20944;47.048;15.390;2023-11-18T11:14:59;98056.75;;;11.56;47.18
12759;BME280;20944;47.048;15.390;2023-11-18T11:17:31;98046.09;;;11.62;47.69
12759;BME280;20944;47.048;15.390;2023-11-18T11:20:06;98045.91;;;11.70;46.62
12759;BME280;20944;47.048;15.390;2023-11-18T11:22:55;98071.03;;;11.80;45.44
12759;BME280;20944;47.048;15.390;2023-11-18T11:25:31;98038.81;;;11.39;45.69
12759;BME280;20944;47.048;15.390;2023-11-18T11:28:08;98033.38;;;11.47;46.10
12759;BME280;20944;47.048;15.390;2023-11-18T11:30:43;98073.34;;;11.58;45.17
12759;BME280;20944;47.048;15.390;2023-11-18T11:33:17;98077.69;;;11.59;46.61
12759;BME280;20944;47.048;15.390;2023-11-18T11:35:51;98064.28;;;11.70;46.03
12759;BME280;20944;47.048;15.390;2023-11-18T11:38:25;98076.28;;;11.80;46.09
12759;BME280;20944;47.048;15.390;2023-11-18T11:40:57;98077.66;;;11.96;45.80
12759;BME280;20944;47.048;15.390;2023-11-18T11:43:29;98071.47;;;12.30;46.41
12759;BME280;20944;47.048;15.390;2023-11-18T11:46:01;98051.81;;;12.43;43.83
12759;BME280;20944;47.048;15.390;2023-11-18T11:48:37;98059.81;;;12.69;44.10
12759;BME280;20944;47.048;15.390;2023-11-18T11:51:19;98008.50;;;12.58;43.84
12759;BME280;20944;47.048;15.390;2023-11-18T11:54:00;98050.94;;;12.74;42.66
12759;BME280;20944;47.048;15.390;2023-11-18T11:56:42;98044.03;;;12.71;42.53
12759;BME280;20944;47.048;15.390;2023-11-18T11:59:10;98052.53;;;12.79;42.54
12759;BME280;20944;47.048;15.390;2023-11-18T12:01:40;98063.56;;;12.92;41.47
12759;BME280;20944;47.048;15.390;2023-11-18T12:04:15;98059.25;;;12.89;41.84
12759;BME280;20944;47.048;15.390;2023-11-18T12:06:52;98059.88;;;12.98;41.36
12759;BME280;20944;47.048;15.390;2023-11-18T12:09:40;98073.59;;;13.07;41.72
12759;BME280;20944;47.048;15.390;2023-11-18T12:12:17;98072.00;;;13.03;41.45
12759;BME280;20944;47.048;15.390;2023-11-18T12:14:50;98067.53;;;13.05;40.60
12759;BME280;20944;47.048;15.390;2023-11-18T12:17:19;98086.44;;;13.18;41.10
12759;BME280;20944;47.048;15.390;2023-11-18T12:19:59;98069.22;;;13.08;39.55
12759;BME280;20944;47.048;15.390;2023-11-18T12:23:03;98085.75;;;12.82;40.09
12759;BME280;20944;47.048;15.390;2023-11-18T12:25:33;98029.38;;;12.31;40.41
12759;BME280;20944;47.048;15.390;2023-11-18T12:28:10;98083.88;;;12.56;40.66
12759;BME280;20944;47.048;15.390;2023-11-18T12:30:43;98077.53;;;12.64;41.08
12759;BME280;20944;47.048;15.390;2023-11-18T12:33:23;98082.44;;;12.77;40.50
12759;BME280;20944;47.048;15.390;2023-11-18T12:42:24;98055.28;;;13.04;39.83
12759;BME280;20944;47.048;15.390;2023-11-18T12:45:30;98073.59;;;13.37;39.00
12759;BME280;20944;47.048;15.390;2023-11-18T12:48:14;98066.84;;;13.28;39.14
12759;BME280;20944;47.048;15.390;2023-11-18T12:50:43;98082.13;;;13.71;38.79
12759;BME280;20944;47.048;15.390;2023-11-18T12:53:13;98075.41;;;13.89;38.04
12759;BME280;20944;47.048;15.390;2023-11-18T12:55:44;98079.44;;;13.73;37.90
12759;BME280;20944;47.048;15.390;2023-11-18T12:58:17;98081.34;;;13.68;38.32
12759;BME280;20944;47.048;15.390;2023-11-18T13:00:45;98081.50;;;13.63;38.68
12759;BME280;20944;47.048;15.390;2023-11-18T13:03:13;98080.88;;;13.83;38.24
12759;BME280;20944;47.048;15.390;2023-11-18T13:05:43;98085.66;;;13.97;36.95
12759;BME280;20944;47.048;15.390;2023-11-18T13:08:12;98090.34;;;14.64;36.59
12759;BME280;20944;47.048;15.390;2023-11-18T13:10:42;98094.56;;;15.60;35.30
12759;BME280;20944;47.048;15.390;2023-11-18T13:13:11;98084.34;;;16.56;34.67
12759;BME280;20944;47.048;15.390;2023-11-18T13:15:46;98086.75;;;17.75;32.14
12759;BME280;20944;47.048;15.390;2023-11-18T13:18:17;98085.78;;;17.40;32.38
12759;BME280;20944;47.048;15.390;2023-11-18T13:20:55;98089.13;;;18.66;30.80
12759;BME280;20944;47.048;15.390;2023-11-18T13:23:25;98064.41;;;19.78;29.32